sensor_id;sensor_type;location;lat;lon;timestamp;temperature;humidity
843;DHT22;407;48.884;9.126;2023-02-28T00:02:14;-0.30;99.90
843;DHT22;407;48.884;9.126;2023-02-28T00:04:43;-0.30;99.90
843;DHT22;407;48.884;9.126;2023-02-28T00:07:09;-0.40;99.90
843;DHT22;407;48.884;9.126;2023-02-28T00:09:34;-0.40;99.90
843;DHT22;407;48.884;9.126;2023-02-28T00:12:00;0.40;99.90
843;DHT22;407;48.884;9.126;2023-02-28T00:14:30;-0.40;99.90
843;DHT22;407;48.884;9.126;2023-02-28T00:16:55;-0.40;99.90
843;DHT22;407;48.884;9.126;2023-02-28T00:19:21;-0.30;99.90
843;DHT22;407;48.884;9.126;2023-02-28T00:21:46;-0.30;99.90
843;DHT22;407;48.884;9.126;2023-02-28T00:24:12;-0.40;99.90
843;DHT22;407;48.884;9.126;2023-02-28T00:26:38;-0.40;99.90
843;DHT22;407;48.884;9.126;2023-02-28T00:29:04;-0.50;99.90
843;DHT22;407;48.884;9.126;2023-02-28T00:31:29;-0.40;99.90
843;DHT22;407;48.884;9.126;2023-02-28T00:33:55;-0.30;99.90
843;DHT22;407;48.884;9.126;2023-02-28T00:36:20;-0.40;99.90
843;DHT22;407;48.884;9.126;2023-02-28T00:38:46;-0.30;99.90
843;DHT22;407;48.884;9.126;2023-02-28T00:41:11;-0.40;99.90
843;DHT22;407;48.884;9.126;2023-02-28T00:43:38;-0.40;99.90
843;DHT22;407;48.884;9.126;2023-02-28T00:46:04;-0.40;99.90
843;DHT22;407;48.884;9.126;2023-02-28T00:48:31;-0.40;99.90
843;DHT22;407;48.884;9.126;2023-02-28T00:50:56;-0.40;99.90
843;DHT22;407;48.884;9.126;2023-02-28T00:53:22;-0.40;99.90
843;DHT22;407;48.884;9.126;2023-02-28T00:55:49;-0.40;99.90
843;DHT22;407;48.884;9.126;2023-02-28T00:58:15;-0.40;99.90
843;DHT22;407;48.884;9.126;2023-02-28T01:00:40;-0.50;99.90
843;DHT22;407;48.884;9.126;2023-02-28T01:03:06;-0.50;99.90
843;DHT22;407;48.884;9.126;2023-02-28T01:05:33;-0.40;99.90
843;DHT22;407;48.884;9.126;2023-02-28T01:07:59;-0.40;99.90
843;DHT22;407;48.884;9.126;2023-02-28T01:10:25;-0.50;99.90
843;DHT22;407;48.884;9.126;2023-02-28T01:12:51;-0.60;99.90
843;DHT22;407;48.884;9.126;2023-02-28T01:15:16;-0.50;99.90
843;DHT22;407;48.884;9.126;2023-02-28T01:17:42;-0.50;99.90
843;DHT22;407;48.884;9.126;2023-02-28T01:20:08;-0.40;99.90
843;DHT22;407;48.884;9.126;2023-02-28T01:22:35;-0.50;99.90
843;DHT22;407;48.884;9.126;2023-02-28T01:25:00;-0.90;99.90
843;DHT22;407;48.884;9.126;2023-02-28T01:27:26;-0.50;99.90
843;DHT22;407;48.884;9.126;2023-02-28T01:29:52;-0.50;99.90
843;DHT22;407;48.884;9.126;2023-02-28T01:32:17;-0.50;99.90
843;DHT22;407;48.884;9.126;2023-02-28T01:34:43;1.10;99.90
843;DHT22;407;48.884;9.126;2023-02-28T01:37:09;-0.50;99.90
843;DHT22;407;48.884;9.126;2023-02-28T01:39:36;-0.50;99.90
843;DHT22;407;48.884;9.126;2023-02-28T01:42:01;-0.60;99.90
843;DHT22;407;48.884;9.126;2023-02-28T01:47:34;-0.60;99.90
843;DHT22;407;48.884;9.126;2023-02-28T01:50:06;-0.50;99.90
843;DHT22;407;48.884;9.126;2023-02-28T01:52:34;-0.50;99.90
843;DHT22;407;48.884;9.126;2023-02-28T01:55:03;0.40;99.90
843;DHT22;407;48.884;9.126;2023-02-28T01:57:35;-0.60;99.90
843;DHT22;407;48.884;9.126;2023-02-28T02:00:11;-0.50;99.90
843;DHT22;407;48.884;9.126;2023-02-28T02:02:39;-0.60;99.90
843;DHT22;407;48.884;9.126;2023-02-28T02:05:10;-0.60;99.90
843;DHT22;407;48.884;9.126;2023-02-28T02:07:38;0.50;99.90
843;DHT22;407;48.884;9.126;2023-02-28T02:10:15;-0.50;99.90
843;DHT22;407;48.884;9.126;2023-02-28T02:15:44;-0.40;99.90
843;DHT22;407;48.884;9.126;2023-02-28T02:35:27;-0.40;99.90
843;DHT22;407;48.884;9.126;2023-02-28T02:38:18;-0.40;99.90
843;DHT22;407;48.884;9.126;2023-02-28T02:41:13;-0.50;99.90
843;DHT22;407;48.884;9.126;2023-02-28T02:46:39;-0.60;99.90
843;DHT22;407;48.884;9.126;2023-02-28T02:49:09;-0.70;99.90
843;DHT22;407;48.884;9.126;2023-02-28T02:51:36;-0.60;99.90
843;DHT22;407;48.884;9.126;2023-02-28T02:54:25;-0.50;99.90
843;DHT22;407;48.884;9.126;2023-02-28T02:56:56;-0.60;99.90
843;DHT22;407;48.884;9.126;2023-02-28T02:59:22;0.70;99.90
843;DHT22;407;48.884;9.126;2023-02-28T03:01:53;-0.30;99.90
843;DHT22;407;48.884;9.126;2023-02-28T03:04:22;-0.40;99.90
843;DHT22;407;48.884;9.126;2023-02-28T03:06:50;-0.40;99.90
843;DHT22;407;48.884;9.126;2023-02-28T03:09:22;-0.40;99.90
843;DHT22;407;48.884;9.126;2023-02-28T03:11:48;-0.40;99.90
843;DHT22;407;48.884;9.126;2023-02-28T03:14:55;-0.50;99.90
843;DHT22;407;48.884;9.126;2023-02-28T03:23:23;-0.50;99.90
843;DHT22;407;48.884;9.126;2023-02-28T03:26:02;-0.50;99.90
843;DHT22;407;48.884;9.126;2023-02-28T03:31:43;-0.40;99.90
843;DHT22;407;48.884;9.126;2023-02-28T03:36:51;-0.40;99.90
843;DHT22;407;48.884;9.126;2023-02-28T03:39:31;-0.30;99.90
843;DHT22;407;48.884;9.126;2023-02-28T03:42:01;-0.20;99.90
843;DHT22;407;48.884;9.126;2023-02-28T03:44:34;-0.10;99.90
843;DHT22;407;48.884;9.126;2023-02-28T03:47:06;-0.20;99.90
843;DHT22;407;48.884;9.126;2023-02-28T03:49:42;-0.20;99.90
843;DHT22;407;48.884;9.126;2023-02-28T03:52:31;-0.20;99.90
843;DHT22;407;48.884;9.126;2023-02-28T03:55:02;-0.20;99.90
843;DHT22;407;48.884;9.126;2023-02-28T03:57:45;-0.10;99.90
843;DHT22;407;48.884;9.126;2023-02-28T04:00:21;0.00;99.90
843;DHT22;407;48.884;9.126;2023-02-28T04:02:50;1.00;99.90
843;DHT22;407;48.884;9.126;2023-02-28T04:05:21;0.00;99.90
843;DHT22;407;48.884;9.126;2023-02-28T04:07:47;0.10;99.90
843;DHT22;407;48.884;9.126;2023-02-28T04:10:15;-0.10;99.90
843;DHT22;407;48.884;9.126;2023-02-28T04:12:41;-0.10;99.90
843;DHT22;407;48.884;9.126;2023-02-28T04:15:07;0.90;99.90
843;DHT22;407;48.884;9.126;2023-02-28T04:17:33;0.00;99.90
843;DHT22;407;48.884;9.126;2023-02-28T04:19:59;-0.20;99.90
843;DHT22;407;48.884;9.126;2023-02-28T04:22:24;-0.10;99.90
843;DHT22;407;48.884;9.126;2023-02-28T04:24:53;-0.20;99.90
843;DHT22;407;48.884;9.126;2023-02-28T04:27:21;-0.20;99.90
843;DHT22;407;48.884;9.126;2023-02-28T04:29:47;-0.20;99.90
843;DHT22;407;48.884;9.126;2023-02-28T04:32:13;-0.40;99.90
843;DHT22;407;48.884;9.126;2023-02-28T04:34:39;-0.30;99.90
843;DHT22;407;48.884;9.126;2023-02-28T04:37:05;0.50;99.90
843;DHT22;407;48.884;9.126;2023-02-28T04:39:35;-0.20;99.90
843;DHT22;407;48.884;9.126;2023-02-28T04:42:01;-0.30;99.90
843;DHT22;407;48.884;9.126;2023-02-28T04:44:26;-0.10;99.90
843;DHT22;407;48.884;9.126;2023-02-28T04:46:52;-0.20;99.90
843;DHT22;407;48.884;9.126;2023-02-28T04:49:17;-0.20;99.90
843;DHT22;407;48.884;9.126;2023-02-28T04:51:43;-0.20;99.90
843;DHT22;407;48.884;9.126;2023-02-28T04:54:09;-0.30;99.90
843;DHT22;407;48.884;9.126;2023-02-28T04:56:35;-0.30;99.90
843;DHT22;407;48.884;9.126;2023-02-28T04:59:01;-0.20;99.90
843;DHT22;407;48.884;9.126;2023-02-28T05:01:30;-0.20;99.90
843;DHT22;407;48.884;9.126;2023-02-28T05:03:58;-0.20;99.90
843;DHT22;407;48.884;9.126;2023-02-28T05:06:26;-0.10;99.90
843;DHT22;407;48.884;9.126;2023-02-28T05:08:52;-0.30;99.90
843;DHT22;407;48.884;9.126;2023-02-28T05:11:21;-0.30;99.90
843;DHT22;407;48.884;9.126;2023-02-28T05:13:47;-0.20;99.90
843;DHT22;407;48.884;9.126;2023-02-28T05:16:13;-0.10;99.90
843;DHT22;407;48.884;9.126;2023-02-28T05:18:45;-0.10;99.90
843;DHT22;407;48.884;9.126;2023-02-28T05:21:28;-0.30;99.90
843;DHT22;407;48.884;9.126;2023-02-28T05:23:56;-0.40;99.90
843;DHT22;407;48.884;9.126;2023-02-28T05:26:22;-0.30;99.90
843;DHT22;407;48.884;9.126;2023-02-28T05:28:57;-0.30;99.90
843;DHT22;407;48.884;9.126;2023-02-28T05:31:23;-0.20;99.90
843;DHT22;407;48.884;9.126;2023-02-28T05:33:49;-0.30;99.90
843;DHT22;407;48.884;9.126;2023-02-28T05:36:14;-0.30;99.90
843;DHT22;407;48.884;9.126;2023-02-28T05:38:40;-0.10;99.90
843;DHT22;407;48.884;9.126;2023-02-28T05:41:10;-0.20;99.90
843;DHT22;407;48.884;9.126;2023-02-28T05:43:36;-0.20;99.90
843;DHT22;407;48.884;9.126;2023-02-28T05:46:07;-0.20;99.90
843;DHT22;407;48.884;9.126;2023-02-28T05:48:42;-0.20;99.90
843;DHT22;407;48.884;9.126;2023-02-28T05:51:08;-0.10;99.90
843;DHT22;407;48.884;9.126;2023-02-28T05:53:34;0.00;99.90
843;DHT22;407;48.884;9.126;2023-02-28T05:56:00;0.00;99.90
843;DHT22;407;48.884;9.126;2023-02-28T05:58:25;0.10;99.90
843;DHT22;407;48.884;9.126;2023-02-28T06:00:54;0.10;99.90
843;DHT22;407;48.884;9.126;2023-02-28T06:03:20;0.10;99.90
843;DHT22;407;48.884;9.126;2023-02-28T06:05:45;0.00;99.90
843;DHT22;407;48.884;9.126;2023-02-28T06:08:11;0.10;99.90
843;DHT22;407;48.884;9.126;2023-02-28T06:10:37;0.10;99.90
843;DHT22;407;48.884;9.126;2023-02-28T06:13:03;0.90;99.90
843;DHT22;407;48.884;9.126;2023-02-28T06:15:30;-0.10;99.90
843;DHT22;407;48.884;9.126;2023-02-28T06:17:57;-0.10;99.90
843;DHT22;407;48.884;9.126;2023-02-28T06:20:26;0.00;99.90
843;DHT22;407;48.884;9.126;2023-02-28T06:22:59;0.00;99.90
843;DHT22;407;48.884;9.126;2023-02-28T06:25:36;0.00;99.90
843;DHT22;407;48.884;9.126;2023-02-28T06:28:03;0.10;99.90
843;DHT22;407;48.884;9.126;2023-02-28T06:30:29;-0.10;99.90
843;DHT22;407;48.884;9.126;2023-02-28T06:32:55;0.00;99.90
843;DHT22;407;48.884;9.126;2023-02-28T06:35:22;0.10;99.90
843;DHT22;407;48.884;9.126;2023-02-28T06:37:48;0.00;99.90
843;DHT22;407;48.884;9.126;2023-02-28T06:40:14;0.00;99.90
843;DHT22;407;48.884;9.126;2023-02-28T06:42:40;0.10;99.90
843;DHT22;407;48.884;9.126;2023-02-28T06:45:06;0.20;99.90
843;DHT22;407;48.884;9.126;2023-02-28T06:47:35;0.20;99.90
843;DHT22;407;48.884;9.126;2023-02-28T06:50:01;0.20;99.90
843;DHT22;407;48.884;9.126;2023-02-28T06:52:27;0.20;99.90
843;DHT22;407;48.884;9.126;2023-02-28T06:54:52;0.40;99.90
843;DHT22;407;48.884;9.126;2023-02-28T06:57:27;0.40;99.90
843;DHT22;407;48.884;9.126;2023-02-28T06:59:53;0.30;99.90
843;DHT22;407;48.884;9.126;2023-02-28T07:02:18;0.20;99.90
843;DHT22;407;48.884;9.126;2023-02-28T07:04:44;0.20;99.90
843;DHT22;407;48.884;9.126;2023-02-28T07:07:11;0.30;99.90
843;DHT22;407;48.884;9.126;2023-02-28T07:09:37;0.30;99.90
843;DHT22;407;48.884;9.126;2023-02-28T07:12:02;0.20;99.90
843;DHT22;407;48.884;9.126;2023-02-28T07:14:28;0.20;99.90
843;DHT22;407;48.884;9.126;2023-02-28T07:16:53;0.30;99.90
843;DHT22;407;48.884;9.126;2023-02-28T07:19:19;0.30;99.90
843;DHT22;407;48.884;9.126;2023-02-28T07:21:46;0.40;99.90
843;DHT22;407;48.884;9.126;2023-02-28T07:24:11;0.50;99.90
843;DHT22;407;48.884;9.126;2023-02-28T07:26:37;0.60;99.90
843;DHT22;407;48.884;9.126;2023-02-28T07:29:03;0.50;99.90
843;DHT22;407;48.884;9.126;2023-02-28T07:31:29;0.40;99.90
843;DHT22;407;48.884;9.126;2023-02-28T07:33:55;0.40;99.90
843;DHT22;407;48.884;9.126;2023-02-28T07:36:21;0.40;99.90
843;DHT22;407;48.884;9.126;2023-02-28T07:38:48;0.20;99.90
843;DHT22;407;48.884;9.126;2023-02-28T07:41:17;0.30;99.90
843;DHT22;407;48.884;9.126;2023-02-28T07:43:43;0.40;99.90
843;DHT22;407;48.884;9.126;2023-02-28T07:46:12;0.40;99.90
843;DHT22;407;48.884;9.126;2023-02-28T07:48:38;0.50;99.90
843;DHT22;407;48.884;9.126;2023-02-28T07:51:04;0.60;99.90
843;DHT22;407;48.884;9.126;2023-02-28T07:53:30;0.70;99.90
843;DHT22;407;48.884;9.126;2023-02-28T07:55:57;0.70;99.90
843;DHT22;407;48.884;9.126;2023-02-28T07:58:25;0.80;99.90
843;DHT22;407;48.884;9.126;2023-02-28T08:00:51;0.70;99.90
843;DHT22;407;48.884;9.126;2023-02-28T08:03:21;0.70;99.90
843;DHT22;407;48.884;9.126;2023-02-28T08:05:47;0.70;99.90
843;DHT22;407;48.884;9.126;2023-02-28T08:08:13;0.80;99.90
843;DHT22;407;48.884;9.126;2023-02-28T08:10:39;0.90;99.90
843;DHT22;407;48.884;9.126;2023-02-28T08:13:05;0.70;99.90
843;DHT22;407;48.884;9.126;2023-02-28T08:15:30;0.90;99.90
843;DHT22;407;48.884;9.126;2023-02-28T08:17:56;0.90;99.90
843;DHT22;407;48.884;9.126;2023-02-28T08:20:23;1.00;99.90
843;DHT22;407;48.884;9.126;2023-02-28T08:22:49;0.90;99.90
843;DHT22;407;48.884;9.126;2023-02-28T08:25:15;1.10;99.90
843;DHT22;407;48.884;9.126;2023-02-28T08:27:41;0.90;99.90
843;DHT22;407;48.884;9.126;2023-02-28T08:30:09;0.70;99.90
843;DHT22;407;48.884;9.126;2023-02-28T08:32:35;0.70;99.90
843;DHT22;407;48.884;9.126;2023-02-28T08:35:01;0.80;99.90
843;DHT22;407;48.884;9.126;2023-02-28T08:37:28;1.10;99.90
843;DHT22;407;48.884;9.126;2023-02-28T08:39:53;1.20;99.90
843;DHT22;407;48.884;9.126;2023-02-28T08:42:19;1.10;99.90
843;DHT22;407;48.884;9.126;2023-02-28T08:44:45;1.10;99.90
843;DHT22;407;48.884;9.126;2023-02-28T08:47:11;1.10;99.90
843;DHT22;407;48.884;9.126;2023-02-28T08:49:37;1.10;99.90
843;DHT22;407;48.884;9.126;2023-02-28T08:52:03;1.20;99.90
843;DHT22;407;48.884;9.126;2023-02-28T08:54:28;2.50;99.90
843;DHT22;407;48.884;9.126;2023-02-28T08:56:56;1.10;99.90
843;DHT22;407;48.884;9.126;2023-02-28T08:59:23;1.30;99.90
843;DHT22;407;48.884;9.126;2023-02-28T09:01:49;1.30;99.90
843;DHT22;407;48.884;9.126;2023-02-28T09:04:14;1.30;99.90
843;DHT22;407;48.884;9.126;2023-02-28T09:06:40;1.20;99.90
843;DHT22;407;48.884;9.126;2023-02-28T09:09:06;1.30;99.90
843;DHT22;407;48.884;9.126;2023-02-28T09:11:34;1.30;99.90
843;DHT22;407;48.884;9.126;2023-02-28T09:14:00;1.80;99.90
843;DHT22;407;48.884;9.126;2023-02-28T09:16:28;1.40;99.90
843;DHT22;407;48.884;9.126;2023-02-28T09:18:54;1.50;99.90
843;DHT22;407;48.884;9.126;2023-02-28T09:21:20;1.60;99.90
843;DHT22;407;48.884;9.126;2023-02-28T09:23:47;1.60;99.90
843;DHT22;407;48.884;9.126;2023-02-28T09:26:16;1.60;99.90
843;DHT22;407;48.884;9.126;2023-02-28T09:28:42;1.70;99.90
843;DHT22;407;48.884;9.126;2023-02-28T09:31:15;1.70;99.90
843;DHT22;407;48.884;9.126;2023-02-28T09:33:41;1.80;99.90
843;DHT22;407;48.884;9.126;2023-02-28T09:36:07;2.00;99.90
843;DHT22;407;48.884;9.126;2023-02-28T09:38:33;2.20;99.90
843;DHT22;407;48.884;9.126;2023-02-28T09:41:01;2.00;99.90
843;DHT22;407;48.884;9.126;2023-02-28T09:43:35;1.90;99.90
843;DHT22;407;48.884;9.126;2023-02-28T09:46:28;2.20;99.90
843;DHT22;407;48.884;9.126;2023-02-28T09:48:55;2.50;99.90
843;DHT22;407;48.884;9.126;2023-02-28T09:51:33;2.60;99.90
843;DHT22;407;48.884;9.126;2023-02-28T09:54:01;2.60;99.90
843;DHT22;407;48.884;9.126;2023-02-28T09:56:39;2.50;99.90
843;DHT22;407;48.884;9.126;2023-02-28T10:00:03;2.40;99.90
843;DHT22;407;48.884;9.126;2023-02-28T10:05:22;2.50;99.90
843;DHT22;407;48.884;9.126;2023-02-28T10:08:16;3.40;99.90
843;DHT22;407;48.884;9.126;2023-02-28T10:10:47;2.30;99.90
843;DHT22;407;48.884;9.126;2023-02-28T10:13:45;2.50;99.90
843;DHT22;407;48.884;9.126;2023-02-28T10:16:15;2.80;99.90
843;DHT22;407;48.884;9.126;2023-02-28T10:18:52;2.90;99.90
843;DHT22;407;48.884;9.126;2023-02-28T10:21:24;3.10;99.90
843;DHT22;407;48.884;9.126;2023-02-28T10:23:56;3.20;99.90
843;DHT22;407;48.884;9.126;2023-02-28T10:26:26;3.40;99.90
843;DHT22;407;48.884;9.126;2023-02-28T10:28:54;3.50;99.90
843;DHT22;407;48.884;9.126;2023-02-28T10:31:20;3.70;99.90
843;DHT22;407;48.884;9.126;2023-02-28T10:33:46;3.70;99.90
843;DHT22;407;48.884;9.126;2023-02-28T10:36:18;3.50;99.90
843;DHT22;407;48.884;9.126;2023-02-28T10:38:45;3.30;99.90
843;DHT22;407;48.884;9.126;2023-02-28T10:41:15;3.30;99.90
843;DHT22;407;48.884;9.126;2023-02-28T10:43:43;3.10;99.90
843;DHT22;407;48.884;9.126;2023-02-28T10:49:03;3.80;99.90
843;DHT22;407;48.884;9.126;2023-02-28T10:51:35;4.10;99.90
843;DHT22;407;48.884;9.126;2023-02-28T10:54:02;4.30;99.90
843;DHT22;407;48.884;9.126;2023-02-28T10:56:29;4.60;99.90
843;DHT22;407;48.884;9.126;2023-02-28T10:58:59;4.20;99.90
843;DHT22;407;48.884;9.126;2023-02-28T11:01:44;3.70;99.90
843;DHT22;407;48.884;9.126;2023-02-28T11:07:03;4.00;99.90
843;DHT22;407;48.884;9.126;2023-02-28T11:09:50;4.00;99.90
843;DHT22;407;48.884;9.126;2023-02-28T11:12:26;4.20;99.90
843;DHT22;407;48.884;9.126;2023-02-28T11:14:57;4.20;99.90
843;DHT22;407;48.884;9.126;2023-02-28T11:17:29;4.60;99.90
843;DHT22;407;48.884;9.126;2023-02-28T11:20:05;4.90;99.90
843;DHT22;407;48.884;9.126;2023-02-28T11:22:39;4.90;99.90
843;DHT22;407;48.884;9.126;2023-02-28T11:25:26;5.00;99.90
843;DHT22;407;48.884;9.126;2023-02-28T11:27:57;4.80;99.90
843;DHT22;407;48.884;9.126;2023-02-28T11:30:33;4.80;99.90
843;DHT22;407;48.884;9.126;2023-02-28T11:33:53;4.80;99.90
843;DHT22;407;48.884;9.126;2023-02-28T11:36:23;5.20;99.90
843;DHT22;407;48.884;9.126;2023-02-28T11:39:01;5.60;99.90
843;DHT22;407;48.884;9.126;2023-02-28T11:45:12;6.10;99.90
843;DHT22;407;48.884;9.126;2023-02-28T11:50:47;6.50;99.90
843;DHT22;407;48.884;9.126;2023-02-28T11:53:37;6.50;99.90
843;DHT22;407;48.884;9.126;2023-02-28T11:56:18;6.60;99.90
843;DHT22;407;48.884;9.126;2023-02-28T12:07:16;7.90;99.90
843;DHT22;407;48.884;9.126;2023-02-28T12:09:57;8.20;99.90
843;DHT22;407;48.884;9.126;2023-02-28T12:20:52;8.60;99.90
843;DHT22;407;48.884;9.126;2023-02-28T12:23:45;9.00;99.90
843;DHT22;407;48.884;9.126;2023-02-28T12:26:32;8.40;99.90
843;DHT22;407;48.884;9.126;2023-02-28T12:35:05;8.10;99.90
843;DHT22;407;48.884;9.126;2023-02-28T12:38:06;8.00;99.90
843;DHT22;407;48.884;9.126;2023-02-28T12:40:45;8.00;99.90
843;DHT22;407;48.884;9.126;2023-02-28T12:43:15;7.70;99.90
843;DHT22;407;48.884;9.126;2023-02-28T12:45:58;8.70;99.90
843;DHT22;407;48.884;9.126;2023-02-28T12:48:41;8.90;99.90
843;DHT22;407;48.884;9.126;2023-02-28T12:51:08;7.30;99.90
843;DHT22;407;48.884;9.126;2023-02-28T12:56:43;7.30;99.90
843;DHT22;407;48.884;9.126;2023-02-28T13:02:02;6.60;99.90
843;DHT22;407;48.884;9.126;2023-02-28T13:10:45;7.30;99.90
843;DHT22;407;48.884;9.126;2023-02-28T13:13:24;7.40;99.90
843;DHT22;407;48.884;9.126;2023-02-28T13:16:07;7.30;99.90
843;DHT22;407;48.884;9.126;2023-02-28T13:18:38;7.40;99.90
843;DHT22;407;48.884;9.126;2023-02-28T13:21:10;7.50;99.90
843;DHT22;407;48.884;9.126;2023-02-28T13:39:58;7.90;99.90
843;DHT22;407;48.884;9.126;2023-02-28T13:55:34;7.60;99.90
843;DHT22;407;48.884;9.126;2023-02-28T14:01:11;7.50;99.90
843;DHT22;407;48.884;9.126;2023-02-28T14:06:33;7.90;99.90
843;DHT22;407;48.884;9.126;2023-02-28T14:11:46;7.80;99.90
843;DHT22;407;48.884;9.126;2023-02-28T14:16:59;7.90;99.90
843;DHT22;407;48.884;9.126;2023-02-28T14:19:27;8.00;99.90
843;DHT22;407;48.884;9.126;2023-02-28T14:22:40;8.00;99.90
843;DHT22;407;48.884;9.126;2023-02-28T14:25:22;7.80;99.90
843;DHT22;407;48.884;9.126;2023-02-28T14:36:35;7.70;99.90
843;DHT22;407;48.884;9.126;2023-02-28T14:39:22;7.70;99.90
843;DHT22;407;48.884;9.126;2023-02-28T14:41:48;7.60;99.90
843;DHT22;407;48.884;9.126;2023-02-28T14:44:20;7.40;99.90
843;DHT22;407;48.884;9.126;2023-02-28T14:46:49;7.50;99.90
843;DHT22;407;48.884;9.126;2023-02-28T14:52:03;7.60;99.90
843;DHT22;407;48.884;9.126;2023-02-28T14:54:31;8.30;99.90
843;DHT22;407;48.884;9.126;2023-02-28T14:56:56;7.60;99.90
843;DHT22;407;48.884;9.126;2023-02-28T14:59:33;8.60;99.90
843;DHT22;407;48.884;9.126;2023-02-28T15:02:22;7.50;99.90
843;DHT22;407;48.884;9.126;2023-02-28T15:04:56;7.50;99.90
843;DHT22;407;48.884;9.126;2023-02-28T15:07:22;7.40;99.90
843;DHT22;407;48.884;9.126;2023-02-28T15:12:45;7.10;99.90
843;DHT22;407;48.884;9.126;2023-02-28T15:15:16;7.30;99.90
843;DHT22;407;48.884;9.126;2023-02-28T15:17:50;7.30;99.90
843;DHT22;407;48.884;9.126;2023-02-28T15:20:17;7.40;99.90
843;DHT22;407;48.884;9.126;2023-02-28T15:22:45;7.20;99.90
843;DHT22;407;48.884;9.126;2023-02-28T15:25:15;7.10;99.90
843;DHT22;407;48.884;9.126;2023-02-28T15:27:45;7.10;99.90
843;DHT22;407;48.884;9.126;2023-02-28T15:30:25;6.90;99.90
843;DHT22;407;48.884;9.126;2023-02-28T15:35:37;6.70;99.90
843;DHT22;407;48.884;9.126;2023-02-28T15:38:24;6.80;99.90
843;DHT22;407;48.884;9.126;2023-02-28T15:40:52;6.80;99.90
843;DHT22;407;48.884;9.126;2023-02-28T15:43:36;6.60;99.90
843;DHT22;407;48.884;9.126;2023-02-28T15:46:08;6.60;99.90
843;DHT22;407;48.884;9.126;2023-02-28T15:48:43;6.80;99.90
843;DHT22;407;48.884;9.126;2023-02-28T15:51:33;6.70;99.90
843;DHT22;407;48.884;9.126;2023-02-28T15:54:06;7.40;99.90
843;DHT22;407;48.884;9.126;2023-02-28T15:56:37;6.40;99.90
843;DHT22;407;48.884;9.126;2023-02-28T15:59:15;7.20;99.90
843;DHT22;407;48.884;9.126;2023-02-28T16:01:41;6.20;99.90
843;DHT22;407;48.884;9.126;2023-02-28T16:06:40;6.30;99.90
843;DHT22;407;48.884;9.126;2023-02-28T16:09:14;6.30;99.90
843;DHT22;407;48.884;9.126;2023-02-28T16:11:48;6.30;99.90
843;DHT22;407;48.884;9.126;2023-02-28T16:14:25;6.10;99.90
843;DHT22;407;48.884;9.126;2023-02-28T16:17:06;6.00;99.90
843;DHT22;407;48.884;9.126;2023-02-28T16:19:32;7.10;99.90
843;DHT22;407;48.884;9.126;2023-02-28T16:21:58;6.70;99.90
843;DHT22;407;48.884;9.126;2023-02-28T16:24:23;5.90;99.90
843;DHT22;407;48.884;9.126;2023-02-28T16:26:51;5.80;99.90
843;DHT22;407;48.884;9.126;2023-02-28T16:29:31;5.70;99.90
843;DHT22;407;48.884;9.126;2023-02-28T16:31:58;5.70;99.90
843;DHT22;407;48.884;9.126;2023-02-28T16:34:24;5.80;99.90
843;DHT22;407;48.884;9.126;2023-02-28T16:36:50;5.60;99.90
843;DHT22;407;48.884;9.126;2023-02-28T16:39:16;5.60;99.90
843;DHT22;407;48.884;9.126;2023-02-28T16:41:47;6.60;99.90
843;DHT22;407;48.884;9.126;2023-02-28T16:44:29;5.60;99.90
843;DHT22;407;48.884;9.126;2023-02-28T16:46:56;5.50;99.90
843;DHT22;407;48.884;9.126;2023-02-28T16:49:22;5.40;99.90
843;DHT22;407;48.884;9.126;2023-02-28T16:51:47;5.30;99.90
843;DHT22;407;48.884;9.126;2023-02-28T16:54:13;5.30;99.90
843;DHT22;407;48.884;9.126;2023-02-28T16:56:43;5.30;99.90
843;DHT22;407;48.884;9.126;2023-02-28T16:59:10;5.30;99.90
843;DHT22;407;48.884;9.126;2023-02-28T17:01:36;5.20;99.90
843;DHT22;407;48.884;9.126;2023-02-28T17:04:01;5.20;99.90
843;DHT22;407;48.884;9.126;2023-02-28T17:06:28;5.20;99.90
843;DHT22;407;48.884;9.126;2023-02-28T17:08:55;5.30;99.90
843;DHT22;407;48.884;9.126;2023-02-28T17:11:21;6.30;99.90
843;DHT22;407;48.884;9.126;2023-02-28T17:13:48;5.10;99.90
843;DHT22;407;48.884;9.126;2023-02-28T17:18:50;4.90;99.90
843;DHT22;407;48.884;9.126;2023-02-28T17:21:16;5.60;99.90
843;DHT22;407;48.884;9.126;2023-02-28T17:23:42;4.70;99.90
843;DHT22;407;48.884;9.126;2023-02-28T17:26:13;4.70;99.90
843;DHT22;407;48.884;9.126;2023-02-28T17:28:38;4.60;99.90
843;DHT22;407;48.884;9.126;2023-02-28T17:31:04;4.60;99.90
843;DHT22;407;48.884;9.126;2023-02-28T17:33:30;4.50;99.90
843;DHT22;407;48.884;9.126;2023-02-28T17:35:55;5.70;99.90
843;DHT22;407;48.884;9.126;2023-02-28T17:38:21;4.40;99.90
843;DHT22;407;48.884;9.126;2023-02-28T17:40:48;4.40;99.90
843;DHT22;407;48.884;9.126;2023-02-28T17:43:14;4.40;99.90
843;DHT22;407;48.884;9.126;2023-02-28T17:45:40;4.40;99.90
843;DHT22;407;48.884;9.126;2023-02-28T17:48:06;4.30;99.90
843;DHT22;407;48.884;9.126;2023-02-28T17:50:34;4.30;99.90
843;DHT22;407;48.884;9.126;2023-02-28T17:52:59;4.30;99.90
843;DHT22;407;48.884;9.126;2023-02-28T17:55:25;5.70;99.90
843;DHT22;407;48.884;9.126;2023-02-28T17:57:51;5.50;99.90
843;DHT22;407;48.884;9.126;2023-02-28T18:00:17;4.10;99.90
843;DHT22;407;48.884;9.126;2023-02-28T18:02:44;4.20;99.90
843;DHT22;407;48.884;9.126;2023-02-28T18:05:10;4.20;99.90
843;DHT22;407;48.884;9.126;2023-02-28T18:07:39;4.20;99.90
843;DHT22;407;48.884;9.126;2023-02-28T18:10:07;4.00;99.90
843;DHT22;407;48.884;9.126;2023-02-28T18:12:36;4.10;99.90
843;DHT22;407;48.884;9.126;2023-02-28T18:15:03;4.50;99.90
843;DHT22;407;48.884;9.126;2023-02-28T18:17:29;4.00;99.90
843;DHT22;407;48.884;9.126;2023-02-28T18:19:54;4.00;99.90
843;DHT22;407;48.884;9.126;2023-02-28T18:22:21;5.50;99.90
843;DHT22;407;48.884;9.126;2023-02-28T18:24:47;3.90;99.90
843;DHT22;407;48.884;9.126;2023-02-28T18:27:13;3.90;99.90
843;DHT22;407;48.884;9.126;2023-02-28T18:29:38;3.90;99.90
843;DHT22;407;48.884;9.126;2023-02-28T18:32:05;5.20;99.90
843;DHT22;407;48.884;9.126;2023-02-28T18:34:30;4.60;99.90
843;DHT22;407;48.884;9.126;2023-02-28T18:36:56;3.70;99.90
843;DHT22;407;48.884;9.126;2023-02-28T18:39:22;3.60;99.90
843;DHT22;407;48.884;9.126;2023-02-28T18:41:48;3.60;99.90
843;DHT22;407;48.884;9.126;2023-02-28T18:44:13;3.60;99.90
843;DHT22;407;48.884;9.126;2023-02-28T18:46:39;3.60;99.90
843;DHT22;407;48.884;9.126;2023-02-28T18:49:05;3.40;99.90
843;DHT22;407;48.884;9.126;2023-02-28T18:51:31;4.10;99.90
843;DHT22;407;48.884;9.126;2023-02-28T18:53:58;3.30;99.90
843;DHT22;407;48.884;9.126;2023-02-28T18:56:24;3.20;99.90
843;DHT22;407;48.884;9.126;2023-02-28T18:58:50;3.60;99.90
843;DHT22;407;48.884;9.126;2023-02-28T19:01:25;3.20;99.90
843;DHT22;407;48.884;9.126;2023-02-28T19:03:57;3.20;99.90
843;DHT22;407;48.884;9.126;2023-02-28T19:06:26;3.20;99.90
843;DHT22;407;48.884;9.126;2023-02-28T19:08:56;3.10;99.90
843;DHT22;407;48.884;9.126;2023-02-28T19:11:23;3.00;99.90
843;DHT22;407;48.884;9.126;2023-02-28T19:13:49;3.00;99.90
843;DHT22;407;48.884;9.126;2023-02-28T19:16:17;2.80;99.90
843;DHT22;407;48.884;9.126;2023-02-28T19:18:43;2.80;99.90
843;DHT22;407;48.884;9.126;2023-02-28T19:21:11;2.70;99.90
843;DHT22;407;48.884;9.126;2023-02-28T19:23:38;2.70;99.90
843;DHT22;407;48.884;9.126;2023-02-28T19:26:11;2.70;99.90
843;DHT22;407;48.884;9.126;2023-02-28T19:28:39;2.70;99.90
843;DHT22;407;48.884;9.126;2023-02-28T19:31:11;2.70;99.90
843;DHT22;407;48.884;9.126;2023-02-28T19:33:43;2.70;99.90
843;DHT22;407;48.884;9.126;2023-02-28T19:36:10;2.60;99.90